createdAt,value
2019-02-28T00:00:59.515Z,24.83
2019-02-28T00:03:27.671Z,21.63
2019-02-28T00:05:56.384Z,32.90
2019-02-28T00:08:25.053Z,28.53
2019-02-28T00:10:53.711Z,23.10
2019-02-28T00:13:22.557Z,24.27
2019-02-28T00:15:50.483Z,25.50
2019-02-28T00:18:18.762Z,24.40
2019-02-28T00:20:46.930Z,29.83
2019-02-28T00:23:15.016Z,23.80
2019-02-28T00:25:43.113Z,27.53
2019-02-28T00:28:11.553Z,21.47
2019-02-28T00:30:40.722Z,23.33
2019-02-28T00:33:10.077Z,25.30
2019-02-28T00:35:38.503Z,25.10
2019-02-28T00:38:06.557Z,26.70
2019-02-28T00:40:34.565Z,23.70
2019-02-28T00:43:03.249Z,18.93
2019-02-28T00:45:36.310Z,25.70
2019-02-28T00:48:01.247Z,24.27
2019-02-28T00:50:29.429Z,21.93
2019-02-28T00:52:57.697Z,20.70
2019-02-28T00:55:26.071Z,25.80
2019-02-28T00:57:55.413Z,23.23
2019-02-28T01:00:24.044Z,23.63
2019-02-28T01:02:53.703Z,23.37
2019-02-28T01:05:22.122Z,26.50
2019-02-28T01:07:50.212Z,20.13
2019-02-28T01:10:18.605Z,19.20
2019-02-28T01:12:46.760Z,19.10
2019-02-28T01:15:14.964Z,22.53
2019-02-28T01:17:42.908Z,27.40
2019-02-28T01:20:14.988Z,20.43
2019-02-28T01:22:41.705Z,20.27
2019-02-28T01:25:09.926Z,21.43
2019-02-28T01:27:38.562Z,20.30
2019-02-28T01:30:07.770Z,24.87
2019-02-28T01:32:35.916Z,29.23
2019-02-28T01:35:06.737Z,18.57
2019-02-28T01:37:34.501Z,27.93
2019-02-28T01:40:04.520Z,19.03
2019-02-28T01:42:32.831Z,19.53
2019-02-28T01:45:01.169Z,20.83
2019-02-28T01:47:29.578Z,23.73
2019-02-28T01:49:58.743Z,20.77
2019-02-28T01:52:26.954Z,21.80
2019-02-28T01:54:55.156Z,20.90
2019-02-28T01:57:23.125Z,31.73
2019-02-28T01:59:52.894Z,18.80
2019-02-28T02:02:21.090Z,20.30
2019-02-28T02:04:49.145Z,19.90
2019-02-28T02:07:17.355Z,20.90
2019-02-28T02:09:46.122Z,17.40
2019-02-28T02:12:15.565Z,19.23
2019-02-28T02:14:45.623Z,14.30
2019-02-28T02:17:14.170Z,21.13
2019-02-28T02:19:42.852Z,17.80
2019-02-28T02:22:11.196Z,17.63
2019-02-28T02:24:39.282Z,18.70
2019-02-28T02:27:07.461Z,18.37
2019-02-28T02:29:36.320Z,16.00
2019-02-28T02:32:05.679Z,21.00
2019-02-28T02:34:33.710Z,16.40
2019-02-28T02:37:02.166Z,18.60
2019-02-28T02:39:30.779Z,19.43
2019-02-28T02:41:59.151Z,19.33
2019-02-28T02:44:31.845Z,24.13
2019-02-28T02:46:58.350Z,19.97
2019-02-28T02:49:26.472Z,18.63
2019-02-28T02:51:54.841Z,14.77
2019-02-28T02:54:23.216Z,17.87
2019-02-28T02:56:51.602Z,16.63
2019-02-28T02:59:19.955Z,20.33
2019-02-28T03:01:48.618Z,25.87
2019-02-28T03:04:23.047Z,14.60
2019-02-28T03:06:47.838Z,18.37
2019-02-28T03:09:15.942Z,20.17
2019-02-28T03:11:44.328Z,15.10
2019-02-28T03:14:16.503Z,21.27
2019-02-28T03:16:42.306Z,18.10
2019-02-28T03:19:10.377Z,19.40
2019-02-28T03:21:38.549Z,13.90
2019-02-28T03:24:06.506Z,17.33
2019-02-28T03:26:34.371Z,18.13
2019-02-28T03:29:07.534Z,18.20
2019-02-28T03:31:32.863Z,17.97
2019-02-28T03:34:10.077Z,14.30
2019-02-28T03:36:30.789Z,17.50
2019-02-28T03:38:59.005Z,26.20
2019-02-28T03:41:27.019Z,20.13
2019-02-28T03:43:55.363Z,15.77
2019-02-28T03:46:23.558Z,17.20
2019-02-28T03:48:51.527Z,17.57
2019-02-28T03:51:19.962Z,19.07
2019-02-28T03:53:55.589Z,19.37
2019-02-28T03:56:19.105Z,14.27
2019-02-28T03:58:47.499Z,18.97
2019-02-28T04:01:16.216Z,19.30
2019-02-28T04:03:44.545Z,11.80
2019-02-28T04:06:12.630Z,15.77
2019-02-28T04:08:40.598Z,22.77
2019-02-28T04:11:08.869Z,15.27
2019-02-28T04:13:37.234Z,16.70
2019-02-28T04:16:09.196Z,20.47
2019-02-28T04:18:44.128Z,18.85
2019-02-28T04:21:19.786Z,16.47
2019-02-28T04:23:52.874Z,13.10
2019-02-28T04:26:21.073Z,13.87
2019-02-28T04:28:53.280Z,22.67
2019-02-28T04:31:20.430Z,22.57
2019-02-28T04:33:56.181Z,14.07
2019-02-28T04:36:24.409Z,18.97
2019-02-28T04:38:52.569Z,14.37
2019-02-28T04:41:20.959Z,15.03
2019-02-28T04:43:49.542Z,15.27
2019-02-28T04:46:35.304Z,18.03
2019-02-28T04:49:03.244Z,19.13
2019-02-28T04:51:31.688Z,12.97
2019-02-28T04:53:59.630Z,16.60
2019-02-28T04:56:28.517Z,14.43
2019-02-28T04:58:59.489Z,12.67
2019-02-28T05:01:26.645Z,16.50
2019-02-28T05:03:54.687Z,14.33
2019-02-28T05:06:22.715Z,13.97
2019-02-28T05:08:50.871Z,16.77
2019-02-28T05:11:18.872Z,13.27
2019-02-28T05:13:48.749Z,13.03
2019-02-28T05:16:17.838Z,17.50
2019-02-28T05:18:46.174Z,17.60
2019-02-28T05:21:16.526Z,15.07
2019-02-28T05:23:44.269Z,13.90
2019-02-28T05:26:12.257Z,13.63
2019-02-28T05:28:41.414Z,17.47
2019-02-28T05:31:10.022Z,14.33
2019-02-28T05:33:41.839Z,11.13
2019-02-28T05:36:08.318Z,15.67
2019-02-28T05:38:36.615Z,15.13
2019-02-28T05:41:04.694Z,23.30
2019-02-28T05:43:32.927Z,14.67
2019-02-28T05:46:00.948Z,13.43
2019-02-28T05:48:28.890Z,11.87
2019-02-28T05:50:57.061Z,13.13
2019-02-28T05:53:25.014Z,14.70
2019-02-28T05:55:53.105Z,9.17
2019-02-28T05:58:21.786Z,13.53
2019-02-28T06:00:49.857Z,13.20
2019-02-28T06:03:18.250Z,22.70
2019-02-28T06:05:46.403Z,12.63
2019-02-28T06:08:15.020Z,17.43
2019-02-28T06:10:43.715Z,13.77
2019-02-28T06:13:11.804Z,13.83
2019-02-28T06:15:39.825Z,13.00
2019-02-28T06:18:07.910Z,14.23
2019-02-28T06:20:36.367Z,13.07
2019-02-28T06:23:06.315Z,17.63
2019-02-28T06:25:37.335Z,15.47
2019-02-28T06:28:05.416Z,15.57
2019-02-28T06:30:33.438Z,12.83
2019-02-28T06:33:01.538Z,11.53
2019-02-28T06:35:30.030Z,25.53
2019-02-28T06:37:58.595Z,15.40
2019-02-28T06:40:26.989Z,14.87
2019-02-28T06:42:55.929Z,19.03
2019-02-28T06:45:24.434Z,15.80
2019-02-28T06:47:52.438Z,15.80
2019-02-28T06:50:20.602Z,14.53
2019-02-28T06:52:48.908Z,13.70
2019-02-28T06:55:22.982Z,13.23
2019-02-28T06:57:51.148Z,13.17
2019-02-28T07:00:19.417Z,13.87
2019-02-28T07:02:47.298Z,12.60
2019-02-28T07:05:15.480Z,13.30
2019-02-28T07:07:45.649Z,14.70
2019-02-28T07:10:14.006Z,18.23
2019-02-28T07:12:42.654Z,10.87
2019-02-28T07:15:11.277Z,16.60
2019-02-28T07:17:42.527Z,15.27
2019-02-28T07:20:11.198Z,19.60
2019-02-28T07:22:40.173Z,20.40
2019-02-28T07:25:09.496Z,13.47
2019-02-28T07:27:38.753Z,12.30
2019-02-28T07:30:09.825Z,12.87
2019-02-28T07:32:37.878Z,16.67
2019-02-28T07:35:06.826Z,16.23
2019-02-28T07:37:35.181Z,12.30
2019-02-28T07:40:03.743Z,13.47
2019-02-28T07:42:33.653Z,18.63
2019-02-28T07:45:02.443Z,17.43
2019-02-28T07:47:30.618Z,21.43
2019-02-28T07:49:59.097Z,13.20
2019-02-28T07:52:32.369Z,12.83
2019-02-28T07:54:57.906Z,17.50
2019-02-28T07:57:26.054Z,13.47
2019-02-28T07:59:54.457Z,11.83
2019-02-28T08:02:22.864Z,11.83
2019-02-28T08:04:54.574Z,8.60
2019-02-28T08:07:21.405Z,14.47
2019-02-28T08:09:49.370Z,8.60
2019-02-28T08:12:17.551Z,11.10
2019-02-28T08:14:47.014Z,9.73
2019-02-28T08:17:16.041Z,15.13
2019-02-28T08:19:44.546Z,12.60
2019-02-28T08:22:12.798Z,16.87
2019-02-28T08:24:40.937Z,15.97
2019-02-28T08:27:09.561Z,14.77
2019-02-28T08:29:37.629Z,13.77
2019-02-28T08:32:07.986Z,9.87
2019-02-28T08:34:35.617Z,10.57
2019-02-28T08:37:03.707Z,10.67
2019-02-28T08:39:32.378Z,7.90
2019-02-28T08:42:04.354Z,15.05
2019-02-28T08:44:30.901Z,13.93
2019-02-28T08:46:59.294Z,13.85
2019-02-28T08:49:27.767Z,11.35
2019-02-28T08:51:56.130Z,14.55
2019-02-28T08:54:27.247Z,17.40
2019-02-28T08:56:54.363Z,20.02
2019-02-28T08:59:22.833Z,13.25
2019-02-28T09:02:03.536Z,24.27
2019-02-28T09:04:41.453Z,21.65
2019-02-28T09:07:17.094Z,11.65
2019-02-28T09:09:54.014Z,10.80
2019-02-28T09:12:29.979Z,17.37
2019-02-28T09:15:19.342Z,20.90
2019-02-28T09:17:59.474Z,15.65
2019-02-28T09:20:35.760Z,17.85
2019-02-28T09:23:12.042Z,14.45
2019-02-28T09:25:48.149Z,13.28
2019-02-28T09:28:25.155Z,21.35
2019-02-28T09:30:54.316Z,14.70
2019-02-28T09:33:32.184Z,14.70
2019-02-28T09:36:00.317Z,18.10
2019-02-28T09:38:28.583Z,16.80
2019-02-28T09:41:06.010Z,16.40
2019-02-28T09:43:34.550Z,21.57
2019-02-28T09:46:02.838Z,22.30
2019-02-28T09:48:33.919Z,15.80
2019-02-28T09:51:01.292Z,15.15
2019-02-28T09:53:29.651Z,14.47
2019-02-28T09:55:57.681Z,21.12
2019-02-28T09:58:28.921Z,14.00
2019-02-28T10:00:56.029Z,10.40
2019-02-28T10:03:24.355Z,8.28
2019-02-28T10:05:52.776Z,9.43
2019-02-28T10:08:21.781Z,13.85
2019-02-28T10:10:52.465Z,12.47
2019-02-28T10:13:20.280Z,6.08
2019-02-28T10:15:48.389Z,11.85
2019-02-28T10:18:16.600Z,9.50
2019-02-28T10:20:44.798Z,7.17
2019-02-28T10:23:12.926Z,5.85
2019-02-28T10:25:53.914Z,7.62
2019-02-28T10:28:22.561Z,4.92
2019-02-28T10:30:50.985Z,9.13
2019-02-28T10:33:19.025Z,7.25
2019-02-28T10:35:47.406Z,5.22
2019-02-28T10:38:15.510Z,4.65
2019-02-28T10:40:43.550Z,8.30
2019-02-28T10:43:15.087Z,6.45
2019-02-28T10:45:42.597Z,7.87
2019-02-28T10:48:10.869Z,8.13
2019-02-28T10:50:38.965Z,7.97
2019-02-28T10:53:07.611Z,5.03
2019-02-28T10:55:36.096Z,7.62
2019-02-28T10:58:04.158Z,8.38
2019-02-28T11:00:33.933Z,6.75
2019-02-28T11:03:02.152Z,6.12
2019-02-28T11:05:31.650Z,6.45
2019-02-28T11:08:00.713Z,5.40
2019-02-28T11:10:36.755Z,4.65
2019-02-28T11:13:07.470Z,10.65
2019-02-28T11:15:35.429Z,9.05
2019-02-28T11:18:08.499Z,7.78
2019-02-28T11:20:34.714Z,7.90
2019-02-28T11:23:03.396Z,8.73
2019-02-28T11:25:34.550Z,5.72
2019-02-28T11:28:02.091Z,8.73
2019-02-28T11:30:30.694Z,12.45
2019-02-28T11:33:03.073Z,8.40
2019-02-28T11:35:30.415Z,11.70
2019-02-28T11:37:58.735Z,18.27
2019-02-28T11:40:28.738Z,10.50
2019-02-28T11:42:59.416Z,8.20
2019-02-28T11:45:27.798Z,9.17
2019-02-28T11:47:57.144Z,9.50
2019-02-28T11:50:25.614Z,9.45
2019-02-28T11:52:53.837Z,6.73
2019-02-28T11:55:21.934Z,9.00
2019-02-28T11:57:50.513Z,9.83
2019-02-28T12:00:24.547Z,10.32
2019-02-28T12:02:53.687Z,7.03
2019-02-28T12:05:23.510Z,8.15
2019-02-28T12:07:52.117Z,5.55
2019-02-28T12:10:20.213Z,8.20
2019-02-28T12:12:48.593Z,12.30
2019-02-28T12:15:17.444Z,6.57
2019-02-28T12:17:45.950Z,3.00
2019-02-28T12:20:14.045Z,13.40
2019-02-28T12:22:43.613Z,5.08
2019-02-28T12:25:14.148Z,7.30
2019-02-28T12:27:42.361Z,5.23
2019-02-28T12:30:13.977Z,4.20
2019-02-28T12:32:43.342Z,7.20
2019-02-28T12:35:12.211Z,4.40
2019-02-28T12:37:40.675Z,3.77
2019-02-28T12:40:11.452Z,4.30
2019-02-28T12:42:39.582Z,2.60
2019-02-28T12:45:11.843Z,3.63
2019-02-28T12:47:41.582Z,4.07
2019-02-28T12:50:10.825Z,4.33
2019-02-28T12:52:39.006Z,5.03
2019-02-28T12:55:08.988Z,7.13
2019-02-28T12:57:37.506Z,2.40
2019-02-28T13:00:07.719Z,5.60
2019-02-28T13:02:36.118Z,6.50
2019-02-28T13:05:04.739Z,5.00
2019-02-28T13:07:33.896Z,2.80
2019-02-28T13:10:04.012Z,2.37
2019-02-28T13:12:32.618Z,1.30
2019-02-28T13:15:01.099Z,1.60
2019-02-28T13:17:31.599Z,4.37
2019-02-28T13:19:59.606Z,1.80
2019-02-28T13:22:27.750Z,1.37
2019-02-28T13:24:56.117Z,17.60
2019-02-28T13:27:24.502Z,5.60
2019-02-28T13:29:53.310Z,1.80
2019-02-28T13:32:21.873Z,1.43
2019-02-28T13:34:50.565Z,6.27
2019-02-28T14:14:27.048Z,7.65
2019-02-28T14:16:54.742Z,6.15
2019-02-28T14:19:22.448Z,8.20
2019-02-28T14:21:50.149Z,2.83
2019-02-28T14:24:17.830Z,7.20
2019-02-28T14:26:46.590Z,4.47
2019-02-28T14:29:15.133Z,5.60
2019-02-28T14:31:42.855Z,5.80
2019-02-28T14:34:10.558Z,5.50
2019-02-28T14:36:41.802Z,6.50
2019-02-28T14:39:11.180Z,9.00
2019-02-28T14:41:38.887Z,3.47
2019-02-28T14:44:06.598Z,7.00
2019-02-28T14:46:34.829Z,8.00
2019-02-28T14:49:02.801Z,4.47
2019-02-28T14:51:30.493Z,10.10
2019-02-28T14:53:58.157Z,7.67
2019-02-28T14:56:25.898Z,8.90
2019-02-28T14:58:56.071Z,4.53
2019-02-28T15:01:23.136Z,12.87
2019-02-28T15:03:50.929Z,4.37
2019-02-28T15:06:18.632Z,10.63
2019-02-28T15:08:47.369Z,11.20
2019-02-28T15:11:16.163Z,8.07
2019-02-28T15:13:44.410Z,9.10
2019-02-28T15:16:12.069Z,7.87
2019-02-28T15:18:44.352Z,5.80
2019-02-28T15:21:11.743Z,6.07
2019-02-28T15:23:39.432Z,8.17
2019-02-28T15:26:08.164Z,7.30
2019-02-28T15:28:35.829Z,10.53
2019-02-28T15:31:05.728Z,10.30
2019-02-28T15:33:33.123Z,6.87
2019-02-28T15:36:00.814Z,5.67
2019-02-28T15:38:28.510Z,10.97
2019-02-28T15:40:58.777Z,10.20
2019-02-28T15:43:26.209Z,8.90
2019-02-28T15:45:54.291Z,7.63
2019-02-28T15:48:22.499Z,7.73
2019-02-28T15:50:51.684Z,3.37
2019-02-28T15:53:20.181Z,6.80
2019-02-28T15:55:48.218Z,9.13
2019-02-28T15:58:16.659Z,11.27
2019-02-28T16:00:45.607Z,9.23
2019-02-28T16:03:16.633Z,9.33
2019-02-28T16:05:53.470Z,7.43
2019-02-28T16:08:21.701Z,11.37
2019-02-28T16:10:53.507Z,11.37
2019-02-28T16:13:19.542Z,6.73
2019-02-28T16:15:50.321Z,6.90
2019-02-28T16:18:18.186Z,7.27
2019-02-28T16:20:46.358Z,5.73
2019-02-28T16:23:14.746Z,9.93
2019-02-28T16:25:42.842Z,5.30
2019-02-28T16:28:11.071Z,3.00
2019-02-28T16:30:39.621Z,5.20
2019-02-28T16:33:07.748Z,9.77
2019-02-28T16:35:35.721Z,6.83
2019-02-28T16:38:06.449Z,5.50
2019-02-28T16:40:34.035Z,6.87
2019-02-28T16:43:02.418Z,6.37
2019-02-28T16:45:33.741Z,16.37
2019-02-28T16:48:05.494Z,6.77
2019-02-28T16:50:33.592Z,4.60
2019-02-28T16:53:01.530Z,5.70
2019-02-28T16:55:31.015Z,4.23
2019-02-28T16:57:59.418Z,5.50
2019-02-28T17:00:28.430Z,7.30
2019-02-28T17:02:57.111Z,3.73
2019-02-28T17:05:28.023Z,5.17
2019-02-28T17:07:55.039Z,6.27
2019-02-28T17:10:28.366Z,6.27
2019-02-28T17:13:17.222Z,7.83
2019-02-28T17:16:01.776Z,7.30
2019-02-28T17:18:31.878Z,7.87
2019-02-28T17:21:00.361Z,4.13
2019-02-28T17:23:28.710Z,4.37
2019-02-28T17:25:57.719Z,7.93
2019-02-28T17:28:49.833Z,10.23
2019-02-28T17:31:31.451Z,7.27
2019-02-28T17:34:00.945Z,9.23
2019-02-28T17:36:30.226Z,4.93
2019-02-28T17:38:58.754Z,6.47
2019-02-28T17:41:27.473Z,9.97
2019-02-28T17:44:39.605Z,5.57
2019-02-28T17:47:33.034Z,11.65
2019-02-28T17:50:27.426Z,11.00
2019-02-28T17:53:58.875Z,13.05
2019-02-28T17:57:05.767Z,12.37
2019-02-28T17:59:54.864Z,12.73
2019-02-28T18:03:01.593Z,7.97
2019-02-28T18:06:13.686Z,12.13
2019-02-28T18:09:13.695Z,17.37
2019-02-28T18:12:29.429Z,10.47
2019-02-28T18:15:26.128Z,26.77
2019-02-28T18:18:29.824Z,14.47
2019-02-28T18:21:44.542Z,15.20
2019-02-28T18:24:42.711Z,15.50
2019-02-28T18:27:53.868Z,15.98
2019-02-28T18:30:49.484Z,16.30
2019-02-28T18:33:19.795Z,9.53
2019-02-28T18:35:48.391Z,19.40
2019-02-28T18:38:17.589Z,12.70
2019-02-28T18:40:48.669Z,14.13
2019-02-28T18:43:19.895Z,8.40
2019-02-28T18:45:53.546Z,9.03
2019-02-28T18:48:21.435Z,9.53
2019-02-28T18:50:49.731Z,9.53
2019-02-28T18:53:18.390Z,17.23
2019-02-28T18:55:47.250Z,7.63
2019-02-28T18:58:15.962Z,10.07
2019-02-28T19:00:44.440Z,11.33
2019-02-28T19:03:13.360Z,8.83
2019-02-28T19:05:41.938Z,7.97
2019-02-28T19:08:11.264Z,7.10
2019-02-28T19:10:40.027Z,9.70
2019-02-28T19:13:08.485Z,12.00
2019-02-28T19:15:37.277Z,10.57
2019-02-28T19:18:07.864Z,9.53
2019-02-28T19:20:36.437Z,12.30
2019-02-28T19:23:05.049Z,11.80
2019-02-28T19:25:33.173Z,16.83
2019-02-28T19:28:02.141Z,14.00
2019-02-28T19:30:31.055Z,12.60
2019-02-28T19:32:59.669Z,11.93
2019-02-28T19:35:27.801Z,14.00
2019-02-28T19:37:56.417Z,14.67
2019-02-28T19:40:24.756Z,6.93
2019-02-28T19:42:52.605Z,12.90
2019-02-28T19:45:21.087Z,16.80
2019-02-28T19:47:49.418Z,14.07
2019-02-28T19:50:18.005Z,15.57
2019-02-28T19:52:46.090Z,7.93
2019-02-28T19:55:14.941Z,11.20
2019-02-28T19:57:42.969Z,11.33
2019-02-28T20:00:15.230Z,7.17
2019-02-28T20:02:43.609Z,8.47
2019-02-28T20:05:12.377Z,12.50
2019-02-28T20:07:40.573Z,12.53
2019-02-28T20:10:10.766Z,10.50
2019-02-28T20:12:38.889Z,6.73
2019-02-28T20:15:07.520Z,8.47
2019-02-28T20:17:35.750Z,7.80
2019-02-28T20:20:05.733Z,9.10
2019-02-28T20:22:34.097Z,10.93
2019-02-28T20:25:02.197Z,17.37
2019-02-28T20:27:30.333Z,13.23
2019-02-28T20:29:58.414Z,11.97
2019-02-28T20:32:27.153Z,13.30
2019-02-28T20:34:55.203Z,16.93
2019-02-28T20:37:23.610Z,17.67
2019-02-28T20:39:52.254Z,8.50
2019-02-28T20:42:20.302Z,12.90
2019-02-28T20:44:48.513Z,10.73
2019-02-28T20:47:16.752Z,15.60
2019-02-28T20:49:44.849Z,22.13
2019-02-28T20:52:13.268Z,9.67
2019-02-28T20:54:41.274Z,12.67
2019-02-28T20:57:09.465Z,12.57
2019-02-28T20:59:37.428Z,19.03
2019-02-28T21:02:05.698Z,14.47
2019-02-28T21:04:33.868Z,14.73
2019-02-28T21:07:02.242Z,11.57
2019-02-28T21:09:30.653Z,9.67
2019-02-28T21:11:58.719Z,14.30
2019-02-28T21:14:26.808Z,7.10
2019-02-28T21:16:54.858Z,7.07
2019-02-28T21:19:23.134Z,12.80
2019-02-28T21:21:51.311Z,13.93
2019-02-28T21:24:19.356Z,7.57
2019-02-28T21:26:48.061Z,12.57
2019-02-28T21:29:16.135Z,9.73
2019-02-28T21:31:44.316Z,14.67
2019-02-28T21:34:12.631Z,12.20
2019-02-28T21:36:40.753Z,14.83
2019-02-28T21:39:09.074Z,13.27
2019-02-28T21:41:37.699Z,19.60
2019-02-28T21:44:05.779Z,8.90
2019-02-28T21:46:34.508Z,6.63
2019-02-28T21:49:03.205Z,10.97
2019-02-28T21:51:31.357Z,6.17
2019-02-28T21:53:59.322Z,6.53
2019-02-28T21:56:27.469Z,16.23
2019-02-28T21:58:55.774Z,7.30
2019-02-28T22:01:24.130Z,8.73
2019-02-28T22:03:55.058Z,4.30
2019-02-28T22:06:23.380Z,14.03
2019-02-28T22:08:51.505Z,5.70
2019-02-28T22:11:19.833Z,7.13
2019-02-28T22:13:47.859Z,12.47
2019-02-28T22:16:16.573Z,12.80
2019-02-28T22:18:44.964Z,6.33
2019-02-28T22:21:13.013Z,13.47
2019-02-28T22:23:41.386Z,7.20
2019-02-28T22:26:09.762Z,7.60
2019-02-28T22:28:37.854Z,11.30
2019-02-28T22:31:19.907Z,4.03
2019-02-28T22:34:08.316Z,8.23
2019-02-28T22:36:39.255Z,8.40
2019-02-28T22:39:08.301Z,9.67
2019-02-28T22:41:36.384Z,6.37
2019-02-28T22:44:04.942Z,9.50
2019-02-28T22:46:33.666Z,7.33
2019-02-28T22:49:02.026Z,5.97
2019-02-28T22:51:30.113Z,7.27
2019-02-28T22:53:58.770Z,10.73
2019-02-28T22:56:27.277Z,8.93
2019-02-28T22:58:55.562Z,10.13
2019-02-28T23:01:25.000Z,18.07
2019-02-28T23:03:53.513Z,8.60
2019-02-28T23:06:21.681Z,16.67
2019-02-28T23:08:49.695Z,6.00
2019-02-28T23:11:18.062Z,8.20
2019-02-28T23:13:46.132Z,6.60
2019-02-28T23:16:15.182Z,12.57
2019-02-28T23:18:43.192Z,12.70
2019-02-28T23:21:11.687Z,6.00
2019-02-28T23:23:40.145Z,5.17
2019-02-28T23:26:12.877Z,6.17
2019-02-28T23:28:44.579Z,10.70
2019-02-28T23:31:56.880Z,8.80
2019-02-28T23:34:31.435Z,4.40
2019-02-28T23:36:59.496Z,2.23
2019-02-28T23:39:28.172Z,2.97
2019-02-28T23:41:56.588Z,12.83
2019-02-28T23:44:24.949Z,7.47
2019-02-28T23:46:53.036Z,2.90
2019-02-28T23:49:21.678Z,5.90
2019-02-28T23:51:49.749Z,3.47
2019-02-28T23:54:18.225Z,5.80
2019-02-28T23:56:46.802Z,3.80
2019-02-28T23:59:14.914Z,4.10
